PWSweather.com
Personal Weather Stations
Station Observations
VPOKROGLO
Kal Nad Kanalom, PrimorskaSI

Kal Nad KanalomPrimorskaSI

Lat: 46.072, Lon: 13.734

Elevation: 2526

Station Type: WS-2355

http://www.okroglovreme.com

Latest ConditionsUpdated 9:00:00 PM GMT+01:01 Monday, Sep 24, 2018
Currently Today's Max Today's Min Today's Average
Temperature 47.3°F8.5°C 64.0°F17.8°C 47.3°F8.5°C 57.0°F13.9°C
Dew Point 37.6°F3.1°C 61.0°F16.1°C 37.1°F2.8°C 48.4°F9.1°C
Winds 5.0 mph S8.0 kmh S 15.0 mph -24.1 kmh - - 6.8 mph 10.9 kmh
Wind Gusts 13.4 mph21.6 kmh 28.6 mph46.0 kmh - -
Humidity 69% 91% 55% 74%
Pressure 30.24 in1024.0 mb 30.24 in1024.0 mb 29.74 in1007.1 mb -
Precipitation - 0.86 in21.8 mm - -
Hour Temp Dew Point Humidity Winds Wind Gusts Pressure Precip Precip Rate Daily Precip Total
09:00 PM 47.3°F8.5°C 37.6°F3.1°C 69% 5.0 mph S8.0 kmh S 13.4 mph21.6 kmh 30.24 in1024.0 mb 0.00 in0.0 mm 0.00 in0.0 mm 0.86 in21.8 mm
08:45 PM 47.8°F8.8°C 37.8°F3.2°C 68% 5.0 mph E8.0 kmh E 16.3 mph26.2 kmh 30.23 in1023.7 mb 0.00 in0.0 mm 0.00 in0.0 mm 0.86 in21.8 mm
08:30 PM 48.0°F8.9°C 37.6°F3.1°C 67% 4.9 mph NW7.9 kmh NW 10.3 mph16.6 kmh 30.22 in1023.4 mb 0.00 in0.0 mm 0.00 in0.0 mm 0.86 in21.8 mm
08:15 PM 48.2°F9.0°C 37.8°F3.2°C 67% 5.4 mph SSE8.7 kmh SSE 11.0 mph17.7 kmh 30.22 in1023.4 mb 0.00 in0.0 mm 0.00 in0.0 mm 0.86 in21.8 mm
08:00 PM 48.6°F9.2°C 38.5°F3.6°C 68% 6.2 mph ENE10.0 kmh ENE 15.0 mph24.1 kmh 30.21 in1023.0 mb 0.00 in0.0 mm 0.00 in0.0 mm 0.86 in21.8 mm
07:45 PM 48.9°F9.4°C 38.8°F3.8°C 68% 6.4 mph NE10.3 kmh NE 17.0 mph27.4 kmh 30.20 in1022.7 mb 0.00 in0.0 mm 0.00 in0.0 mm 0.86 in21.8 mm
07:30 PM 49.3°F9.6°C 38.4°F3.6°C 66% 7.8 mph NE12.6 kmh NE 18.3 mph29.5 kmh 30.20 in1022.7 mb 0.00 in0.0 mm 0.00 in0.0 mm 0.86 in21.8 mm
07:15 PM 49.3°F9.6°C 38.4°F3.6°C 66% 7.5 mph NE12.1 kmh NE 15.9 mph25.6 kmh 30.18 in1022.0 mb 0.00 in0.0 mm 0.00 in0.0 mm 0.86 in21.8 mm
07:00 PM 49.8°F9.9°C 38.5°F3.6°C 65% 9.6 mph NE15.4 kmh NE 19.2 mph30.9 kmh 30.18 in1022.0 mb 0.00 in0.0 mm 0.00 in0.0 mm 0.86 in21.8 mm
06:45 PM 50.2°F10.1°C 38.9°F3.8°C 65% 10.5 mph NE16.9 kmh NE 19.7 mph31.7 kmh 30.17 in1021.7 mb 0.00 in0.0 mm 0.00 in0.0 mm 0.86 in21.8 mm
06:30 PM 50.4°F10.2°C 38.6°F3.7°C 64% 9.3 mph NE15.0 kmh NE 19.5 mph31.4 kmh 30.16 in1021.3 mb 0.00 in0.0 mm 0.00 in0.0 mm 0.86 in21.8 mm
06:15 PM 50.9°F10.5°C 37.9°F3.3°C 61% 12.8 mph NNE20.6 kmh NNE 19.0 mph30.6 kmh 30.15 in1021.0 mb 0.00 in0.0 mm 0.00 in0.0 mm 0.86 in21.8 mm
06:12 PM 51.3°F10.7°C 37.4°F3.0°C 59% 10.1 mph NNE16.3 kmh NNE 12.7 mph20.4 kmh 30.14 in1020.7 mb 0.00 in0.0 mm 0.00 in0.0 mm 0.88 in22.4 mm
06:07 PM 51.4°F10.8°C 37.1°F2.8°C 58% 9.1 mph NNE14.6 kmh NNE 12.7 mph20.4 kmh 30.14 in1020.7 mb 0.00 in0.0 mm 0.00 in0.0 mm 0.88 in22.4 mm
06:00 PM 51.1°F10.6°C 37.7°F3.2°C 60% 9.3 mph NE15.0 kmh NE 21.9 mph35.2 kmh 30.14 in1020.7 mb 0.00 in0.0 mm 0.00 in0.0 mm 0.88 in22.4 mm
05:45 PM 51.4°F10.8°C 39.7°F4.3°C 64% 8.9 mph NE14.3 kmh NE 20.1 mph32.3 kmh 30.13 in1020.3 mb 0.00 in0.0 mm 0.00 in0.0 mm 0.88 in22.4 mm
05:30 PM 51.6°F10.9°C 39.4°F4.1°C 63% 12.7 mph NE20.4 kmh NE 25.1 mph40.4 kmh 30.12 in1020.0 mb 0.00 in0.0 mm 0.00 in0.0 mm 0.88 in22.4 mm
05:15 PM 52.3°F11.3°C 40.1°F4.5°C 63% 13.5 mph NE21.7 kmh NE 25.7 mph41.4 kmh 30.11 in1019.6 mb 0.00 in0.0 mm 0.00 in0.0 mm 0.88 in22.4 mm
05:00 PM 52.7°F11.5°C 40.0°F4.4°C 62% 15.0 mph NE24.1 kmh NE 26.8 mph43.1 kmh 30.09 in1019.0 mb 0.02 in0.5 mm 0.00 in0.0 mm 0.88 in22.4 mm
04:45 PM 53.2°F11.8°C 41.0°F5.0°C 63% 13.3 mph NE21.4 kmh NE 22.6 mph36.4 kmh 30.08 in1018.6 mb 0.02 in0.5 mm 0.00 in0.0 mm 0.88 in22.4 mm
04:30 PM 53.4°F11.9°C 41.1°F5.1°C 63% 11.8 mph NE19.0 kmh NE 28.6 mph46.0 kmh 30.09 in1019.0 mb 0.02 in0.5 mm 0.00 in0.0 mm 0.88 in22.4 mm
04:15 PM 53.8°F12.1°C 41.5°F5.3°C 63% 11.2 mph NE18.0 kmh NE 22.6 mph36.4 kmh 30.08 in1018.6 mb 0.02 in0.5 mm 0.08 in2.0 mm 0.88 in22.4 mm
04:00 PM 54.0°F12.2°C 42.1°F5.6°C 64% 12.6 mph NNE20.3 kmh NNE 25.1 mph40.4 kmh 30.08 in1018.6 mb 0.00 in0.0 mm 0.00 in0.0 mm 0.86 in21.8 mm
03:45 PM 54.5°F12.5°C 41.7°F5.4°C 62% 11.6 mph NE18.7 kmh NE 26.4 mph42.5 kmh 30.09 in1019.0 mb 0.00 in0.0 mm 0.00 in0.0 mm 0.86 in21.8 mm
03:30 PM 55.4°F13.0°C 42.2°F5.7°C 61% 10.6 mph NNE17.1 kmh NNE 22.8 mph36.7 kmh 30.09 in1019.0 mb 0.00 in0.0 mm 0.00 in0.0 mm 0.86 in21.8 mm
03:15 PM 55.8°F13.2°C 42.1°F5.6°C 60% 8.0 mph NNE12.9 kmh NNE 19.7 mph31.7 kmh 30.08 in1018.6 mb 0.00 in0.0 mm 0.00 in0.0 mm 0.86 in21.8 mm
03:00 PM 55.8°F13.2°C 42.9°F6.1°C 62% 6.9 mph NE11.1 kmh NE 17.2 mph27.7 kmh 30.08 in1018.6 mb 0.00 in0.0 mm 0.00 in0.0 mm 0.86 in21.8 mm
02:45 PM 55.9°F13.3°C 43.1°F6.2°C 62% 8.1 mph NE13.0 kmh NE 18.3 mph29.5 kmh 30.08 in1018.6 mb 0.00 in0.0 mm 0.00 in0.0 mm 0.86 in21.8 mm
02:30 PM 55.9°F13.3°C 43.5°F6.4°C 63% 8.7 mph NE14.0 kmh NE 22.8 mph36.7 kmh 30.08 in1018.6 mb 0.00 in0.0 mm 0.00 in0.0 mm 0.86 in21.8 mm
02:15 PM 56.5°F13.6°C 44.4°F6.9°C 64% 6.4 mph E10.3 kmh E 17.4 mph28.0 kmh 30.07 in1018.3 mb 0.00 in0.0 mm 0.00 in0.0 mm 0.86 in21.8 mm
02:00 PM 55.9°F13.3°C 43.9°F6.6°C 64% 7.1 mph NE11.4 kmh NE 16.6 mph26.7 kmh 30.07 in1018.3 mb 0.00 in0.0 mm 0.00 in0.0 mm 0.86 in21.8 mm
01:45 PM 56.5°F13.6°C 43.6°F6.4°C 62% 8.2 mph NE13.2 kmh NE 15.9 mph25.6 kmh 30.07 in1018.3 mb 0.00 in0.0 mm 0.00 in0.0 mm 0.86 in21.8 mm
01:30 PM 57.9°F14.4°C 44.5°F6.9°C 61% 7.2 mph NE11.6 kmh NE 20.4 mph32.8 kmh 30.08 in1018.6 mb 0.00 in0.0 mm 0.00 in0.0 mm 0.86 in21.8 mm
01:15 PM 57.6°F14.2°C 45.1°F7.3°C 63% 8.3 mph ENE13.4 kmh ENE 20.1 mph32.3 kmh 30.07 in1018.3 mb 0.00 in0.0 mm 0.00 in0.0 mm 0.86 in21.8 mm
01:00 PM 57.9°F14.4°C 45.0°F7.2°C 62% 7.5 mph NE12.1 kmh NE 19.0 mph30.6 kmh 30.07 in1018.3 mb 0.00 in0.0 mm 0.00 in0.0 mm 0.86 in21.8 mm
12:45 PM 58.5°F14.7°C 45.1°F7.3°C 61% 8.0 mph NE12.9 kmh NE 18.3 mph29.5 kmh 30.07 in1018.3 mb 0.00 in0.0 mm 0.00 in0.0 mm 0.86 in21.8 mm
12:30 PM 59.0°F15.0°C 45.6°F7.6°C 61% 8.1 mph NE13.0 kmh NE 17.9 mph28.8 kmh 30.05 in1017.6 mb 0.00 in0.0 mm 0.00 in0.0 mm 0.86 in21.8 mm
12:15 PM 59.2°F15.1°C 45.3°F7.4°C 60% 8.7 mph NE14.0 kmh NE 20.8 mph33.5 kmh 30.04 in1017.3 mb 0.00 in0.0 mm 0.00 in0.0 mm 0.86 in21.8 mm
12:00 PM 60.6°F15.9°C 45.3°F7.4°C 57% 6.9 mph NE11.1 kmh NE 17.0 mph27.4 kmh 30.04 in1017.3 mb 0.00 in0.0 mm 0.00 in0.0 mm 0.86 in21.8 mm
11:45 AM 60.4°F15.8°C 44.2°F6.8°C 55% 9.4 mph NNE15.1 kmh NNE 17.4 mph28.0 kmh 30.03 in1016.9 mb 0.00 in0.0 mm 0.00 in0.0 mm 0.86 in21.8 mm
11:30 AM 59.7°F15.4°C 44.9°F7.2°C 58% 9.4 mph NNE15.1 kmh NNE 21.7 mph34.9 kmh 30.02 in1016.6 mb 0.00 in0.0 mm 0.00 in0.0 mm 0.86 in21.8 mm
11:15 AM 59.2°F15.1°C 45.7°F7.6°C 61% 10.1 mph NE16.3 kmh NE 23.5 mph37.8 kmh 30.01 in1016.3 mb 0.00 in0.0 mm 0.00 in0.0 mm 0.86 in21.8 mm
11:00 AM 58.8°F14.9°C 45.4°F7.4°C 62% 8.9 mph NE14.3 kmh NE 22.1 mph35.6 kmh 30.00 in1015.9 mb 0.00 in0.0 mm 0.00 in0.0 mm 0.86 in21.8 mm
10:45 AM 58.8°F14.9°C 47.1°F8.4°C 65% 7.9 mph NE12.7 kmh NE 17.9 mph28.8 kmh 30.00 in1015.9 mb 0.00 in0.0 mm 0.00 in0.0 mm 0.86 in21.8 mm
10:30 AM 58.3°F14.6°C 46.6°F8.1°C 65% 8.4 mph NE13.5 kmh NE 18.3 mph29.5 kmh 29.99 in1015.6 mb 0.00 in0.0 mm 0.00 in0.0 mm 0.86 in21.8 mm
10:15 AM 57.6°F14.2°C 47.5°F8.6°C 69% 6.7 mph NE10.8 kmh NE 20.1 mph32.3 kmh 29.98 in1015.2 mb 0.00 in0.0 mm 0.00 in0.0 mm 0.86 in21.8 mm
10:00 AM 57.9°F14.4°C 48.2°F9.0°C 70% 7.9 mph NE12.7 kmh NE 18.3 mph29.5 kmh 29.98 in1015.2 mb 0.00 in0.0 mm 0.00 in0.0 mm 0.86 in21.8 mm
09:45 AM 57.6°F14.2°C 48.6°F9.2°C 72% 6.7 mph NE10.8 kmh NE 19.0 mph30.6 kmh 29.98 in1015.2 mb 0.00 in0.0 mm 0.00 in0.0 mm 0.86 in21.8 mm
09:30 AM 56.1°F13.4°C 47.6°F8.7°C 73% 7.1 mph NE11.4 kmh NE 16.8 mph27.0 kmh 29.97 in1014.9 mb 0.00 in0.0 mm 0.00 in0.0 mm 0.86 in21.8 mm
09:15 AM 55.8°F13.2°C 48.0°F8.9°C 75% 6.8 mph NE10.9 kmh NE 18.3 mph29.5 kmh 29.96 in1014.6 mb 0.00 in0.0 mm 0.00 in0.0 mm 0.86 in21.8 mm
09:00 AM 55.9°F13.3°C 48.1°F8.9°C 75% 5.7 mph NE9.2 kmh NE 14.1 mph22.7 kmh 29.94 in1013.9 mb 0.00 in0.0 mm 0.00 in0.0 mm 0.86 in21.8 mm
08:45 AM 56.5°F13.6°C 49.0°F9.4°C 76% 5.7 mph NE9.2 kmh NE 14.5 mph23.3 kmh 29.93 in1013.5 mb 0.00 in0.0 mm 0.00 in0.0 mm 0.86 in21.8 mm
08:30 AM 55.9°F13.3°C 48.5°F9.2°C 76% 5.6 mph E9.0 kmh E 17.9 mph28.8 kmh 29.92 in1013.2 mb 0.00 in0.0 mm 0.00 in0.0 mm 0.86 in21.8 mm
08:15 AM 55.9°F13.3°C 49.2°F9.6°C 78% 5.0 mph S8.0 kmh S 12.8 mph20.6 kmh 29.90 in1012.5 mb 0.00 in0.0 mm 0.00 in0.0 mm 0.86 in21.8 mm
08:00 AM 55.9°F13.3°C 49.2°F9.6°C 78% 6.6 mph SSE10.6 kmh SSE 14.3 mph23.0 kmh 29.89 in1012.2 mb 0.00 in0.0 mm 0.00 in0.0 mm 0.86 in21.8 mm
07:45 AM 56.3°F13.5°C 50.5°F10.3°C 81% 5.0 mph N8.0 kmh N 14.3 mph23.0 kmh 29.88 in1011.9 mb 0.02 in0.5 mm 0.00 in0.0 mm 0.86 in21.8 mm
07:30 AM 56.8°F13.8°C 52.1°F11.2°C 84% 5.0 mph S8.0 kmh S 15.7 mph25.3 kmh 29.86 in1011.2 mb 0.02 in0.5 mm 0.00 in0.0 mm 0.86 in21.8 mm
07:15 AM 57.0°F13.9°C 52.6°F11.4°C 85% 5.1 mph NE8.2 kmh NE 17.4 mph28.0 kmh 29.85 in1010.8 mb 0.02 in0.5 mm 0.00 in0.0 mm 0.86 in21.8 mm
07:00 AM 57.9°F14.4°C 53.8°F12.1°C 86% 5.3 mph N8.5 kmh N 13.6 mph21.9 kmh 29.84 in1010.5 mb 0.02 in0.5 mm 0.03 in0.8 mm 0.86 in21.8 mm
06:45 AM 58.3°F14.6°C 54.4°F12.4°C 87% 6.5 mph N10.5 kmh N 11.9 mph19.2 kmh 29.83 in1010.2 mb 0.00 in0.0 mm 0.00 in0.0 mm 0.84 in21.3 mm
06:30 AM 58.8°F14.9°C 55.3°F12.9°C 88% 3.0 mph N4.8 kmh N 6.3 mph10.1 kmh 29.82 in1009.8 mb 0.00 in0.0 mm 0.00 in0.0 mm 0.84 in21.3 mm
06:15 AM 58.8°F14.9°C 55.3°F12.9°C 88% 2.4 mph NNE3.9 kmh NNE 7.2 mph11.6 kmh 29.80 in1009.1 mb 0.00 in0.0 mm 0.00 in0.0 mm 0.84 in21.3 mm
06:00 AM 59.4°F15.2°C 56.4°F13.6°C 90% 1.2 mph E1.9 kmh E 2.5 mph4.0 kmh 29.80 in1009.1 mb 0.00 in0.0 mm 0.00 in0.0 mm 0.84 in21.3 mm
05:45 AM 59.5°F15.3°C 56.6°F13.7°C 90% 0.7 mph E1.1 kmh E 1.6 mph2.6 kmh 29.78 in1008.5 mb 0.02 in0.5 mm 0.00 in0.0 mm 0.84 in21.3 mm
05:30 AM 59.9°F15.5°C 57.0°F13.9°C 90% 0.2 mph E0.3 kmh E 1.8 mph2.9 kmh 29.78 in1008.5 mb 0.02 in0.5 mm 0.00 in0.0 mm 0.84 in21.3 mm
05:15 AM 59.9°F15.5°C 57.0°F13.9°C 90% 1.4 mph E2.3 kmh E 3.4 mph5.5 kmh 29.77 in1008.1 mb 0.14 in3.6 mm 0.00 in0.0 mm 0.84 in21.3 mm
05:00 AM 60.1°F15.6°C 57.1°F13.9°C 90% 1.0 mph NE1.6 kmh NE 2.2 mph3.5 kmh 29.78 in1008.5 mb 0.22 in5.6 mm 0.03 in0.8 mm 0.84 in21.3 mm
04:45 AM 60.4°F15.8°C 57.5°F14.2°C 90% 0.1 mph NNW0.2 kmh NNW 1.6 mph2.6 kmh 29.77 in1008.1 mb 0.20 in5.1 mm 0.00 in0.0 mm 0.82 in20.8 mm
04:30 AM 61.7°F16.5°C 59.0°F15.0°C 91% 2.3 mph N3.7 kmh N 9.2 mph14.8 kmh 29.76 in1007.8 mb 0.20 in5.1 mm 0.56 in14.2 mm 0.82 in20.8 mm
04:15 AM 62.8°F17.1°C 60.1°F15.6°C 91% 2.2 mph NW3.5 kmh NW 6.5 mph10.5 kmh 29.77 in1008.1 mb 0.06 in1.5 mm 0.24 in6.1 mm 0.67 in17.0 mm
04:00 AM 63.1°F17.3°C 60.2°F15.7°C 90% 4.5 mph WSW7.2 kmh WSW 10.5 mph16.9 kmh 29.76 in1007.8 mb 0.00 in0.0 mm 0.00 in0.0 mm 0.61 in15.5 mm
03:45 AM 63.3°F17.4°C 60.6°F15.9°C 91% 9.3 mph WSW15.0 kmh WSW 19.7 mph31.7 kmh 29.76 in1007.8 mb 0.35 in8.9 mm 0.00 in0.0 mm 0.61 in15.5 mm
03:30 AM 63.0°F17.2°C 60.0°F15.6°C 90% 5.1 mph SW8.2 kmh SW 13.0 mph20.9 kmh 29.75 in1007.5 mb 0.43 in10.9 mm 0.00 in0.0 mm 0.61 in15.5 mm
03:15 AM 62.8°F17.1°C 59.8°F15.4°C 90% 2.6 mph WNW4.2 kmh WNW 6.5 mph10.5 kmh 29.75 in1007.5 mb 0.43 in10.9 mm 0.00 in0.0 mm 0.61 in15.5 mm
03:00 AM 62.4°F16.9°C 59.4°F15.2°C 90% 2.2 mph NW3.5 kmh NW 9.2 mph14.8 kmh 29.75 in1007.5 mb 0.43 in10.9 mm 0.47 in11.9 mm 0.61 in15.5 mm
02:45 AM 63.3°F17.4°C 60.3°F15.7°C 90% 3.2 mph SW5.1 kmh SW 13.2 mph21.2 kmh 29.75 in1007.5 mb 0.08 in2.0 mm 0.32 in8.1 mm 0.26 in6.6 mm
02:30 AM 64.0°F17.8°C 61.0°F16.1°C 90% 14.1 mph S22.7 kmh S 22.6 mph36.4 kmh 29.74 in1007.1 mb 0.00 in0.0 mm 0.00 in0.0 mm 0.18 in4.6 mm
02:15 AM 64.0°F17.8°C 61.0°F16.1°C 90% 7.9 mph SSW12.7 kmh SSW 15.7 mph25.3 kmh 29.75 in1007.5 mb 0.14 in3.6 mm 0.00 in0.0 mm 0.18 in4.6 mm
02:00 AM 63.7°F17.6°C 60.7°F15.9°C 90% 8.7 mph S14.0 kmh S 17.4 mph28.0 kmh 29.76 in1007.8 mb 0.16 in4.1 mm 0.00 in0.0 mm 0.18 in4.6 mm
01:45 AM 63.3°F17.4°C 60.3°F15.7°C 90% 7.5 mph SSW12.1 kmh SSW 19.5 mph31.4 kmh 29.77 in1008.1 mb 0.19 in4.8 mm 0.00 in0.0 mm 0.18 in4.6 mm
01:30 AM 62.4°F16.9°C 59.4°F15.2°C 90% 1.1 mph SW1.8 kmh SW 11.0 mph17.7 kmh 29.77 in1008.1 mb 0.19 in4.8 mm 0.60 in15.2 mm 0.18 in4.6 mm
01:15 AM 62.4°F16.9°C 59.4°F15.2°C 90% 1.7 mph WSW2.7 kmh WSW 3.8 mph6.1 kmh 29.77 in1008.1 mb 0.04 in1.0 mm 0.08 in2.0 mm 0.04 in1.0 mm
01:00 AM 63.0°F17.2°C 59.7°F15.4°C 89% 0.8 mph WSW1.3 kmh WSW 3.1 mph5.0 kmh 29.77 in1008.1 mb 0.02 in0.5 mm 0.03 in0.8 mm 0.02 in0.5 mm
12:45 AM 63.0°F17.2°C 59.7°F15.4°C 89% 2.8 mph WSW4.5 kmh WSW 8.7 mph14.0 kmh 29.77 in1008.1 mb 0.00 in0.0 mm 0.00 in0.0 mm 0.00 in0.0 mm
12:30 AM 63.1°F17.3°C 59.8°F15.4°C 89% 2.6 mph SW4.2 kmh SW 9.8 mph15.8 kmh 29.78 in1008.5 mb 0.00 in0.0 mm 0.00 in0.0 mm 0.00 in0.0 mm
12:15 AM 63.1°F17.3°C 59.8°F15.4°C 89% 3.8 mph SW6.1 kmh SW 8.5 mph13.7 kmh 29.78 in1008.5 mb 0.00 in0.0 mm 0.00 in0.0 mm 0.00 in0.0 mm
12:00 AM 63.0°F17.2°C 59.7°F15.4°C 89% 3.8 mph SW6.1 kmh SW 11.6 mph18.7 kmh 29.79 in1008.8 mb 0.00 in0.0 mm 0.00 in0.0 mm 0.00 in0.0 mm